Time;durP1;ratioP1;P1;durP2;ratioP2;P2;SDS_P1;SDS_P2;PMS_P1;PMS_P2;Temp;Humidity;BMP_temperature;BMP_pressure;BME280_temperature;BME280_humidity;BME280_pressure;Samples;Min_cycle;Max_cycle;Signal;HPM_P1;HPM_P2
2022/10/06 00:01:52;;;;;;;;;;;;;;;12.35;59.86;100832.56;4365889;32;20034;-95
2022/10/06 00:04:17;;;;;;;;;;;;;;;12.42;59.86;100828.06;4353210;32;19995;-96
2022/10/06 00:06:42;;;;;;;;;;;;;;;12.41;59.86;100829.81;4342541;33;19984;-96
2022/10/06 00:09:08;;;;;;;;;;;;;;;12.52;59.88;100833.03;4342524;32;27685;-94
2022/10/06 00:11:34;;;;;;;;;;;;;;;12.58;59.88;100822.47;4352870;32;20037;-96
2022/10/06 00:13:59;;;;;;;;;;;;;;;12.47;59.87;100828.81;4354185;32;19975;-95
2022/10/06 00:16:24;;;;;;;;;;;;;;;12.49;59.87;100825.25;4361823;32;19993;-95
2022/10/06 00:18:50;;;;;;;;;;;;;;;12.51;59.88;100820.00;4376782;32;19998;-95
2022/10/06 00:21:15;;;;;;;;;;;;;;;12.53;59.88;100816.47;4364617;32;21401;-96
2022/10/06 00:23:40;;;;;;;;;;;;;;;12.40;59.86;100814.19;4355207;32;20046;-95
2022/10/06 00:26:09;;;;;;;;;;;;;;;12.36;59.87;100815.16;4343273;32;19975;-96
2022/10/06 00:28:34;;;;;;;;;;;;;;;12.54;59.87;100815.59;4377001;32;19998;-96
2022/10/06 00:31:00;;;;;;;;;;;;;;;12.62;59.88;100812.78;4354073;32;20006;-93
2022/10/06 00:33:25;;;;;;;;;;;;;;;12.46;59.87;100819.25;4373160;32;19967;-92
2022/10/06 00:35:57;;;;;;;;;;;;;;;12.53;59.88;100816.47;4366118;32;25237;-93
2022/10/06 00:38:22;;;;;;;;;;;;;;;12.40;59.87;100811.56;4364477;32;19992;-94
2022/10/06 00:40:47;;;;;;;;;;;;;;;12.53;59.87;100805.16;4363102;32;20030;-95
2022/10/06 00:43:32;;;;;;;;;;;;;;;12.17;59.85;100809.47;4352069;32;19987;-95
2022/10/06 00:45:57;;;;;;;;;;;;;;;11.90;59.84;100819.59;4369153;32;19951;-95
2022/10/06 00:48:22;;;;;;;;;;;;;;;11.89;59.83;100817.88;4364758;32;20273;-94
2022/10/06 00:50:48;;;;;;;;;;;;;;;11.88;59.83;100812.69;4352782;32;20034;-95
2022/10/06 00:53:13;;;;;;;;;;;;;;;11.88;59.84;100813.53;4353839;32;19999;-95
2022/10/06 00:55:38;;;;;;;;;;;;;;;11.84;59.84;100813.66;4366595;32;19951;-95
2022/10/06 00:58:04;;;;;;;;;;;;;;;11.82;59.83;100813.66;4351944;33;19987;-95
2022/10/06 01:00:29;;;;;;;;;;;;;;;11.75;59.83;100812.03;4360064;32;25895;-95
2022/10/06 01:02:56;;;;;;;;;;;;;;;11.80;59.84;100814.56;4369612;32;19979;-96
2022/10/06 01:05:28;;;;;;;;;;;;;;;11.64;59.83;100814.88;4369306;32;19978;-94
2022/10/06 01:07:53;;;;;;;;;;;;;;;11.62;59.83;100819.25;4384057;32;19979;-94
2022/10/06 01:10:19;;;;;;;;;;;;;;;11.67;59.83;100812.19;4371192;32;21762;-95
2022/10/06 01:12:44;;;;;;;;;;;;;;;11.65;59.82;100813.13;4371381;32;31996;-95
2022/10/06 01:15:09;;;;;;;;;;;;;;;11.62;59.83;100811.44;4374588;32;27565;-96
2022/10/06 01:17:35;;;;;;;;;;;;;;;11.58;59.82;100811.50;4378081;32;20282;-95
2022/10/06 01:20:07;;;;;;;;;;;;;;;11.51;59.82;100820.31;4366417;32;20308;-94
2022/10/06 01:22:40;;;;;;;;;;;;;;;11.49;59.82;100814.28;4364161;32;19975;-95
2022/10/06 01:25:06;;;;;;;;;;;;;;;11.36;59.80;100819.75;4364383;32;20366;-94
2022/10/06 01:27:32;;;;;;;;;;;;;;;11.38;59.81;100822.31;4377682;32;20001;-95
2022/10/06 01:29:57;;;;;;;;;;;;;;;11.50;59.81;100821.22;4366448;32;19990;-95
2022/10/06 01:32:22;;;;;;;;;;;;;;;11.48;59.81;100823.84;4381032;32;20062;-94
2022/10/06 01:34:48;;;;;;;;;;;;;;;11.42;59.81;100816.16;4369191;32;19979;-94
2022/10/06 01:37:13;;;;;;;;;;;;;;;11.45;59.81;100818.69;4388645;32;27509;-94
2022/10/06 01:39:38;;;;;;;;;;;;;;;11.31;59.81;100818.94;4370854;32;19987;-94
2022/10/06 01:42:03;;;;;;;;;;;;;;;11.23;59.80;100828.66;4379998;32;20277;-94
2022/10/06 01:44:29;;;;;;;;;;;;;;;11.19;59.80;100824.38;4379411;32;19987;-95
2022/10/06 01:46:54;;;;;;;;;;;;;;;11.12;59.79;100828.00;4370086;32;20034;-95
2022/10/06 01:49:19;;;;;;;;;;;;;;;11.00;59.80;100829.03;4360518;32;19994;-96
2022/10/06 01:51:45;;;;;;;;;;;;;;;11.07;59.80;100830.66;4389462;32;20022;-94
2022/10/06 01:54:10;;;;;;;;;;;;;;;11.03;59.79;100831.59;4374488;32;19989;-94
2022/10/06 01:56:35;;;;;;;;;;;;;;;10.95;59.79;100832.63;4370217;32;20044;-95
2022/10/06 01:59:01;;;;;;;;;;;;;;;11.21;59.80;100832.16;4383475;32;20002;-95
2022/10/06 02:01:26;;;;;;;;;;;;;;;11.05;59.79;100832.41;4359851;32;20234;-94
2022/10/06 02:03:51;;;;;;;;;;;;;;;10.86;59.78;100838.81;4365980;32;19974;-96
2022/10/06 02:06:16;;;;;;;;;;;;;;;10.82;59.78;100841.50;4383723;32;25200;-96
2022/10/06 02:08:42;;;;;;;;;;;;;;;10.81;59.78;100837.16;4370422;32;20018;-96
2022/10/06 02:11:11;;;;;;;;;;;;;;;10.93;59.79;100837.00;4365366;32;20022;-94
2022/10/06 02:13:36;;;;;;;;;;;;;;;10.77;59.78;100842.44;4377572;32;20029;-95
2022/10/06 02:16:02;;;;;;;;;;;;;;;10.72;59.77;100843.37;4378408;32;19998;-96
2022/10/06 02:18:29;;;;;;;;;;;;;;;10.70;59.78;100845.16;4368878;32;20058;-96
2022/10/06 02:21:05;;;;;;;;;;;;;;;10.70;59.78;100850.37;4375994;32;19994;-96
2022/10/06 02:23:34;;;;;;;;;;;;;;;10.77;59.78;100839.81;4383718;32;19975;-96
2022/10/06 02:26:03;;;;;;;;;;;;;;;10.70;59.78;100847.75;4385020;32;20708;-96
2022/10/06 02:28:29;;;;;;;;;;;;;;;10.72;59.77;100849.47;4369300;32;20066;-96
2022/10/06 02:30:58;;;;;;;;;;;;;;;10.65;59.77;100855.66;4356672;32;20708;-96
2022/10/06 02:33:23;;;;;;;;;;;;;;;10.57;59.77;100852.28;4353088;32;19990;-96
2022/10/06 02:35:52;;;;;;;;;;;;;;;10.56;59.77;100853.16;4364790;32;21927;-96
2022/10/06 02:38:18;;;;;;;;;;;;;;;10.47;59.76;100855.91;4374283;32;19971;-96
2022/10/06 02:40:43;;;;;;;;;;;;;;;10.39;59.75;100855.13;4379721;32;19999;-96
2022/10/06 02:43:09;;;;;;;;;;;;;;;10.49;59.76;100848.06;4374891;32;20007;-96
2022/10/06 02:45:37;;;;;;;;;;;;;;;10.69;59.76;100838.22;4390111;32;19975;-96
2022/10/06 02:48:03;;;;;;;;;;;;;;;10.67;59.77;100846.06;4376401;32;19987;-96
2022/10/06 02:50:29;;;;;;;;;;;;;;;10.66;59.77;100841.75;4371122;32;19951;-96
2022/10/06 02:52:55;;;;;;;;;;;;;;;10.65;59.77;100844.38;4379130;32;20021;-96
2022/10/06 02:55:22;;;;;;;;;;;;;;;10.42;59.76;100847.31;4378597;32;19955;-96
2022/10/06 02:57:49;;;;;;;;;;;;;;;10.47;59.77;100848.09;4372022;32;20002;-96
2022/10/06 03:00:16;;;;;;;;;;;;;;;10.45;59.76;100849.84;4385084;32;20707;-96
2022/10/06 03:02:42;;;;;;;;;;;;;;;10.36;59.76;100845.62;4372191;32;19959;-96
2022/10/06 03:05:08;;;;;;;;;;;;;;;10.22;59.74;100851.91;4385458;32;20622;-96
2022/10/06 03:07:34;;;;;;;;;;;;;;;10.16;59.75;100851.06;4386827;32;19966;-96
2022/10/06 03:10:00;;;;;;;;;;;;;;;10.23;59.74;100848.44;4372461;32;20013;-96
2022/10/06 03:12:26;;;;;;;;;;;;;;;10.18;59.75;100847.59;4387094;32;19970;-96
2022/10/06 03:14:51;;;;;;;;;;;;;;;10.19;59.75;100849.31;4394761;32;19974;-96
2022/10/06 03:17:18;;;;;;;;;;;;;;;10.14;59.74;100847.59;4352664;32;19991;-96
2022/10/06 03:19:45;;;;;;;;;;;;;;;10.13;59.74;100858.03;4384535;32;19959;-96
2022/10/06 03:22:10;;;;;;;;;;;;;;;10.16;59.74;100863.19;4388327;32;20002;-92
2022/10/06 03:24:35;;;;;;;;;;;;;;;10.05;59.74;100857.28;4376307;32;20295;-94
2022/10/06 03:27:00;;;;;;;;;;;;;;;10.12;59.75;100859.78;4368832;32;26740;-95
2022/10/06 03:29:26;;;;;;;;;;;;;;;10.24;59.75;100869.22;4366923;32;20042;-95
2022/10/06 03:31:52;;;;;;;;;;;;;;;10.18;59.75;100866.66;4372778;32;20005;-95
2022/10/06 03:34:17;;;;;;;;;;;;;;;10.10;59.74;100863.28;4366491;32;20707;-95
2022/10/06 03:36:43;;;;;;;;;;;;;;;10.15;59.74;100864.06;4377576;32;20040;-94
2022/10/06 03:39:08;;;;;;;;;;;;;;;10.07;59.74;100860.72;4357691;32;19975;-94
2022/10/06 03:41:34;;;;;;;;;;;;;;;10.01;59.73;100861.66;4364334;32;19990;-95
2022/10/06 03:43:59;;;;;;;;;;;;;;;10.07;59.73;100852.91;4378752;32;19986;-94
2022/10/06 03:46:25;;;;;;;;;;;;;;;10.03;59.73;100857.31;4386551;32;19978;-95
2022/10/06 03:48:50;;;;;;;;;;;;;;;10.13;59.74;100855.44;4381313;32;19990;-95
2022/10/06 03:51:20;;;;;;;;;;;;;;;10.00;59.73;100865.16;4371791;32;19978;-96
2022/10/06 03:53:46;;;;;;;;;;;;;;;9.87;59.72;100854.88;4368964;32;19994;-95
2022/10/06 03:56:13;;;;;;;;;;;;;;;9.88;59.73;100857.47;4373270;32;20110;-96
2022/10/06 03:58:39;;;;;;;;;;;;;;;9.73;59.72;100866.31;4379905;32;19987;-96
2022/10/06 04:01:05;;;;;;;;;;;;;;;9.72;59.71;100863.75;4371479;32;20763;-96
2022/10/06 04:03:30;;;;;;;;;;;;;;;9.75;59.72;100868.91;4344090;32;20003;-96
2022/10/06 04:05:56;;;;;;;;;;;;;;;9.82;59.72;100868.81;4354038;32;20051;-95
2022/10/06 04:08:22;;;;;;;;;;;;;;;9.97;59.73;100866.94;4364336;32;19996;-96
2022/10/06 04:10:48;;;;;;;;;;;;;;;9.83;59.72;100870.53;4366139;32;19997;-96
2022/10/06 04:13:18;;;;;;;;;;;;;;;9.61;59.71;100868.19;4365693;32;19999;-96
2022/10/06 04:15:46;;;;;;;;;;;;;;;9.69;59.72;100868.94;4377190;32;19967;-96
2022/10/06 04:18:12;;;;;;;;;;;;;;;9.58;59.71;100869.06;4367370;32;19985;-96
2022/10/06 04:20:57;;;;;;;;;;;;;;;9.63;59.71;100874.22;4361971;32;19980;-96
2022/10/06 04:23:22;;;;;;;;;;;;;;;9.59;59.71;100864.72;4369534;32;20038;-95
2022/10/06 04:25:48;;;;;;;;;;;;;;;9.58;59.71;100874.28;4354402;32;20286;-95
2022/10/06 04:28:16;;;;;;;;;;;;;;;9.75;59.72;100877.56;4346259;32;23883;-96
2022/10/06 04:30:41;;;;;;;;;;;;;;;9.72;59.71;100868.94;4350973;32;20050;-95
2022/10/06 04:33:07;;;;;;;;;;;;;;;9.70;59.71;100874.16;4348316;32;20752;-95
2022/10/06 04:35:32;;;;;;;;;;;;;;;9.65;59.72;100873.31;4339043;32;20066;-94
2022/10/06 04:37:57;;;;;;;;;;;;;;;9.60;59.71;100876.84;4351858;32;19979;-95
2022/10/06 04:40:22;;;;;;;;;;;;;;;9.49;59.71;100879.56;4349434;33;20023;-95
2022/10/06 04:42:48;;;;;;;;;;;;;;;9.58;59.71;100869.06;4338438;33;19987;-96
2022/10/06 04:45:13;;;;;;;;;;;;;;;9.49;59.71;100871.78;4341456;32;20000;-96
2022/10/06 04:47:39;;;;;;;;;;;;;;;9.46;59.71;100867.47;4350854;33;19990;-93
2022/10/06 04:50:04;;;;;;;;;;;;;;;9.54;59.71;100863.03;4361167;32;19991;-96
2022/10/06 04:52:29;;;;;;;;;;;;;;;9.50;59.71;100876.09;4363495;32;20011;-93
2022/10/06 04:54:56;;;;;;;;;;;;;;;9.47;59.70;100878.72;4360303;32;19994;-96
2022/10/06 04:57:21;;;;;;;;;;;;;;;9.37;59.70;100872.72;4352952;32;19982;-93
2022/10/06 05:02:30;;;;;;;;;;;;;;;9.36;59.70;100871.00;4373558;32;19966;-96
2022/10/06 05:04:57;;;;;;;;;;;;;;;9.50;59.71;100874.34;4380586;32;20014;-96
2022/10/06 05:07:22;;;;;;;;;;;;;;;9.47;59.70;100876.12;4356304;32;19983;-96
2022/10/06 05:09:47;;;;;;;;;;;;;;;9.65;59.72;100867.25;4378005;32;20222;-94
2022/10/06 05:12:13;;;;;;;;;;;;;;;9.72;59.71;100871.53;4364808;32;20022;-96
2022/10/06 05:14:38;;;;;;;;;;;;;;;9.72;59.71;100866.34;4361646;32;20028;-96
2022/10/06 05:17:03;;;;;;;;;;;;;;;9.77;59.72;100868.00;4363736;32;19983;-95
2022/10/06 05:19:28;;;;;;;;;;;;;;;9.69;59.71;100872.41;4362854;32;20395;-96
2022/10/06 05:21:54;;;;;;;;;;;;;;;9.71;59.71;100869.81;4365592;32;19990;-96
2022/10/06 05:24:19;;;;;;;;;;;;;;;9.60;59.71;100874.25;4369614;32;19987;-94
2022/10/06 05:26:44;;;;;;;;;;;;;;;9.70;59.71;100870.66;4363466;32;19987;-96
2022/10/06 05:29:09;;;;;;;;;;;;;;;9.91;59.73;100873.03;4365512;32;19987;-95
2022/10/06 05:31:39;;;;;;;;;;;;;;;9.94;59.74;100873.03;4376423;32;21680;-96
2022/10/06 05:34:05;;;;;;;;;;;;;;;9.92;59.73;100879.97;4374821;32;20017;-94
2022/10/06 05:36:31;;;;;;;;;;;;;;;10.00;59.73;100877.28;4371699;32;20031;-95
2022/10/06 05:38:56;;;;;;;;;;;;;;;10.08;59.73;100876.31;4363915;32;20593;-95
2022/10/06 05:41:22;;;;;;;;;;;;;;;10.31;59.75;100873.47;4380471;32;19997;-94
2022/10/06 05:43:48;;;;;;;;;;;;;;;10.31;59.75;100875.19;4367374;32;19995;-96
2022/10/06 05:46:16;;;;;;;;;;;;;;;10.47;59.76;100876.72;4368578;32;19991;-95
2022/10/06 05:48:43;;;;;;;;;;;;;;;10.43;59.76;100875.91;4363968;32;20116;-95
2022/10/06 05:51:08;;;;;;;;;;;;;;;10.34;59.75;100880.34;4379748;32;19951;-94
2022/10/06 05:53:34;;;;;;;;;;;;;;;10.61;59.76;100884.31;4371349;32;20348;-95
2022/10/06 05:56:10;;;;;;;;;;;;;;;10.64;59.77;100881.69;4381546;32;19989;-95
2022/10/06 05:58:36;;;;;;;;;;;;;;;10.63;59.77;100878.22;4354458;32;19975;-96
2022/10/06 06:01:05;;;;;;;;;;;;;;;10.60;59.76;100880.87;4356714;32;20632;-96
2022/10/06 06:03:30;;;;;;;;;;;;;;;10.68;59.76;100881.63;4373999;32;20344;-94
2022/10/06 06:05:55;;;;;;;;;;;;;;;10.88;59.78;100888.28;4367365;32;29628;-94
2022/10/06 06:08:20;;;;;;;;;;;;;;;10.90;59.78;100890.00;4369946;32;19955;-95
2022/10/06 06:10:46;;;;;;;;;;;;;;;11.06;59.78;100899.28;4361257;32;888921;-96
2022/10/06 06:13:11;;;;;;;;;;;;;;;11.17;59.80;100903.47;4371673;32;34175;-94
2022/10/06 06:18:20;;;;;;;;;;;;;;;11.49;59.81;100895.97;4379546;32;20335;-95
2022/10/06 06:20:53;;;;;;;;;;;;;;;11.22;59.79;100902.50;4364597;32;27003;-94
2022/10/06 06:23:18;;;;;;;;;;;;;;;11.32;59.81;100904.06;4364850;32;20272;-96
2022/10/06 06:25:43;;;;;;;;;;;;;;;11.49;59.82;100916.81;4353975;32;19983;-95
2022/10/06 06:28:09;;;;;;;;;;;;;;;11.52;59.81;100922.00;4372231;32;21940;-95
2022/10/06 06:30:34;;;;;;;;;;;;;;;11.68;59.83;100914.75;4372845;32;20365;-94
2022/10/06 06:32:59;;;;;;;;;;;;;;;11.76;59.83;100922.44;4367138;32;20010;-95
2022/10/06 06:35:25;;;;;;;;;;;;;;;11.78;59.83;100932.00;4360046;32;20003;-94
2022/10/06 06:37:50;;;;;;;;;;;;;;;11.90;59.83;100923.09;4376116;32;19987;-96
2022/10/06 06:40:15;;;;;;;;;;;;;;;11.85;59.84;100933.62;4367931;32;29444;-95
2022/10/06 06:42:40;;;;;;;;;;;;;;;11.94;59.84;100936.06;4374488;32;26400;-95
2022/10/06 06:45:07;;;;;;;;;;;;;;;12.10;59.85;100936.62;4368760;32;20090;-94
2022/10/06 06:47:33;;;;;;;;;;;;;;;12.04;59.84;100934.09;4385101;32;20290;-95
2022/10/06 06:50:01;;;;;;;;;;;;;;;12.10;59.85;100936.62;4378787;32;19974;-95
2022/10/06 06:52:26;;;;;;;;;;;;;;;12.26;59.85;100929.34;4374186;32;20666;-95
2022/10/06 06:54:51;;;;;;;;;;;;;;;12.29;59.86;100932.75;4376274;32;29397;-95
2022/10/06 06:57:17;;;;;;;;;;;;;;;12.49;59.87;100934.94;4372133;32;26326;-96
2022/10/06 06:59:44;;;;;;;;;;;;;;;12.64;59.87;100941.59;4373643;32;20075;-94
2022/10/06 07:02:10;;;;;;;;;;;;;;;12.69;59.89;100939.75;4368453;32;20659;-96
2022/10/06 07:04:36;;;;;;;;;;;;;;;12.80;59.88;100935.16;4382198;32;19994;-96
2022/10/06 07:07:01;;;;;;;;;;;;;;;12.94;59.89;100936.59;4363717;32;20377;-96
2022/10/06 07:09:26;;;;;;;;;;;;;;;13.15;59.90;100942.19;4366100;32;19987;-96
2022/10/06 07:11:52;;;;;;;;;;;;;;;13.33;59.91;100945.31;4375285;32;20013;-94
2022/10/06 07:14:17;;;;;;;;;;;;;;;13.33;59.91;100942.69;4355413;32;20312;-96
2022/10/06 07:25:05;;;;;;;;;;;;;;;13.99;59.95;100947.97;4371765;32;20014;-96
2022/10/06 07:27:41;;;;;;;;;;;;;;;14.29;59.97;100941.00;4387749;32;19958;-96
2022/10/06 07:30:06;;;;;;;;;;;;;;;14.49;59.98;100947.47;4376020;32;19999;-96
2022/10/06 07:32:32;;;;;;;;;;;;;;;14.34;59.97;100949.59;4375202;32;20016;-96
2022/10/06 07:34:57;;;;;;;;;;;;;;;14.50;59.98;100952.66;4379802;32;19982;-96
2022/10/06 07:37:23;;;;;;;;;;;;;;;14.66;59.99;100951.28;4372885;32;20024;-96
2022/10/06 07:39:48;;;;;;;;;;;;;;;14.61;59.98;100949.72;4389825;32;19991;-96
2022/10/06 07:42:14;;;;;;;;;;;;;;;14.76;59.99;100945.78;4375140;32;20040;-95
2022/10/06 07:44:42;;;;;;;;;;;;;;;14.66;59.99;100948.66;4357568;32;20011;-94
2022/10/06 07:47:07;;;;;;;;;;;;;;;14.90;60.00;100940.97;4375890;32;20054;-95
2022/10/06 07:49:33;;;;;;;;;;;;;;;14.99;60.00;100949.44;4377744;32;24559;-95
2022/10/06 07:51:58;;;;;;;;;;;;;;;15.11;60.01;100953.41;4376820;32;19991;-93
2022/10/06 07:54:24;;;;;;;;;;;;;;;15.19;60.01;100951.44;4373929;32;20022;-94
2022/10/06 07:56:49;;;;;;;;;;;;;;;15.28;60.01;100952.91;4379287;32;19995;-95
2022/10/06 07:59:39;;;;;;;;;;;;;;;15.47;60.02;100955.78;4366499;32;20012;-96
2022/10/06 08:02:05;;;;;;;;;;;;;;;15.72;60.04;100953.22;4373232;32;20002;-95
2022/10/06 08:04:30;;;;;;;;;;;;;;;15.87;60.05;100957.97;4365961;32;20277;-96
2022/10/06 08:06:57;;;;;;;;;;;;;;;16.07;60.06;100954.63;4373998;32;20002;-96
2022/10/06 08:09:22;;;;;;;;;;;;;;;16.13;60.06;100952.66;4386198;32;19995;-96
2022/10/06 08:11:48;;;;;;;;;;;;;;;16.26;60.07;100945.16;4360459;32;19987;-94
2022/10/06 08:14:13;;;;;;;;;;;;;;;16.45;60.08;100947.97;4370701;32;20023;-96
2022/10/06 08:16:39;;;;;;;;;;;;;;;16.79;60.10;100948.44;4367703;32;19975;-95
2022/10/06 08:19:04;;;;;;;;;;;;;;;16.90;60.10;100950.69;4367104;32;20767;-96
2022/10/06 08:21:30;;;;;;;;;;;;;;;17.05;60.11;100950.09;4368585;32;20014;-95
2022/10/06 08:23:57;;;;;;;;;;;;;;;17.20;60.12;100943.34;4378791;32;19974;-95
2022/10/06 08:26:23;;;;;;;;;;;;;;;17.30;60.12;100949.94;4365233;32;20558;-95
2022/10/06 08:28:49;;;;;;;;;;;;;;;17.69;60.14;100941.34;4363597;32;20370;-96
2022/10/06 08:31:15;;;;;;;;;;;;;;;17.83;60.15;100943.41;4379226;32;20002;-95
2022/10/06 08:33:41;;;;;;;;;;;;;;;18.06;60.16;100936.19;4361205;32;19986;-95
2022/10/06 08:36:07;;;;;;;;;;;;;;;18.04;60.16;100945.09;4368071;32;20054;-96
2022/10/06 08:38:33;;;;;;;;;;;;;;;18.15;60.17;100941.97;4378345;32;19959;-95
2022/10/06 08:40:58;;;;;;;;;;;;;;;18.19;60.17;100939.13;4373771;32;19996;-96
2022/10/06 08:43:23;;;;;;;;;;;;;;;18.34;60.18;100938.47;4376916;32;20034;-96
2022/10/06 08:45:49;;;;;;;;;;;;;;;18.62;60.20;100946.00;4371874;32;20002;-94
2022/10/06 08:48:17;;;;;;;;;;;;;;;18.96;60.21;100944.44;4369124;32;20003;-95
2022/10/06 08:51:03;;;;;;;;;;;;;;;19.12;60.22;100945.37;4365878;32;19991;-95
2022/10/06 08:53:34;;;;;;;;;;;;;;;19.00;60.21;100944.19;4371593;32;20341;-95
2022/10/06 08:56:03;;;;;;;;;;;;;;;19.30;60.22;100946.28;4381672;32;19963;-95
2022/10/06 08:58:39;;;;;;;;;;;;;;;19.39;60.24;100942.31;4367694;32;19971;-95
2022/10/06 09:01:05;;;;;;;;;;;;;;;19.42;60.23;100947.47;4380066;32;19959;-96
2022/10/06 09:03:30;;;;;;;;;;;;;;;19.66;60.25;100935.72;4369918;32;20324;-96
2022/10/06 09:06:07;;;;;;;;;;;;;;;19.51;60.24;100937.28;4359218;32;19991;-95
2022/10/06 09:08:52;;;;;;;;;;;;;;;19.82;60.25;100936.62;4367050;32;20058;-96
2022/10/06 09:11:25;;;;;;;;;;;;;;;19.77;60.25;100943.94;4372969;32;20065;-96
2022/10/06 09:13:52;;;;;;;;;;;;;;;20.11;60.28;100940.41;4374031;32;19955;-95
2022/10/06 09:16:19;;;;;;;;;;;;;;;20.25;60.28;100929.09;4378304;32;19990;-96
2022/10/06 09:18:44;;;;;;;;;;;;;;;20.45;60.28;100922.75;4357656;32;20054;-96
2022/10/06 09:21:10;;;;;;;;;;;;;;;20.72;60.31;100930.97;4378876;32;20002;-95
2022/10/06 09:23:48;;;;;;;;;;;;;;;21.03;60.33;100930.09;4377540;32;19974;-94
2022/10/06 09:26:27;;;;;;;;;;;;;;;21.25;60.34;100938.56;4371976;32;20009;-95
2022/10/06 09:28:53;;;;;;;;;;;;;;;21.39;60.34;100937.78;4380693;32;20010;-95
2022/10/06 09:31:22;;;;;;;;;;;;;;;21.63;60.35;100938.16;4367732;32;20053;-94
2022/10/06 09:33:47;;;;;;;;;;;;;;;21.94;60.36;100926.56;4365628;32;19975;-96
2022/10/06 09:36:13;;;;;;;;;;;;;;;22.14;60.38;100936.84;4375470;32;20022;-96
2022/10/06 09:38:48;;;;;;;;;;;;;;;22.45;60.40;100927.81;4382057;32;19998;-96
2022/10/06 09:41:13;;;;;;;;;;;;;;;22.63;60.40;100936.44;4381915;32;20053;-95
2022/10/06 09:43:38;;;;;;;;;;;;;;;22.63;60.40;100936.44;4365398;32;20001;-95
2022/10/06 09:46:16;;;;;;;;;;;;;;;22.54;60.40;100934.38;4364966;32;24571;-93
2022/10/06 09:48:42;;;;;;;;;;;;;;;22.61;60.40;100935.69;4369126;32;19963;-96
2022/10/06 09:51:11;;;;;;;;;;;;;;;22.64;60.40;100938.13;4367197;32;29501;-94
2022/10/06 09:53:39;;;;;;;;;;;;;;;22.80;60.42;100938.03;4366851;32;19997;-94
2022/10/06 09:56:11;;;;;;;;;;;;;;;23.07;60.43;100940.72;4371190;32;20005;-96
2022/10/06 09:58:39;;;;;;;;;;;;;;;23.14;60.43;100937.56;4365700;32;20003;-94
2022/10/06 10:01:05;;;;;;;;;;;;;;;23.44;60.45;100944.50;4365042;32;20017;-94
2022/10/06 10:03:59;;;;;;;;;;;;;;;22.81;60.42;100945.91;4365946;32;20005;-96
2022/10/06 10:06:26;;;;;;;;;;;;;;;23.01;60.42;100942.00;4357810;32;20051;-96
2022/10/06 10:08:53;;;;;;;;;;;;;;;23.18;60.45;100944.38;4379037;32;19994;-94
2022/10/06 10:14:13;;;;;;;;;;;;;;;23.21;60.44;100938.87;4387715;32;20058;-95
2022/10/06 10:16:38;;;;;;;;;;;;;;;23.01;60.42;100941.13;4379616;32;19986;-94
2022/10/06 10:19:04;;;;;;;;;;;;;;;22.93;60.42;100939.81;4365801;32;20490;-94
2022/10/06 10:21:30;;;;;;;;;;;;;;;23.03;60.43;100933.91;4366951;32;20032;-96
2022/10/06 10:23:56;;;;;;;;;;;;;;;22.92;60.42;100938.09;4366670;32;20062;-93
2022/10/06 10:26:30;;;;;;;;;;;;;;;22.85;60.42;100930.66;4363684;32;19990;-96
2022/10/06 10:29:07;;;;;;;;;;;;;;;22.77;60.41;100938.22;4375852;32;20596;-96
2022/10/06 10:31:46;;;;;;;;;;;;;;;22.89;60.43;100934.81;4375927;32;19999;-94
2022/10/06 10:34:18;;;;;;;;;;;;;;;22.92;60.42;100931.94;4374398;32;19974;-95
2022/10/06 10:37:03;;;;;;;;;;;;;;;22.63;60.41;100928.47;4369164;32;20588;-95
2022/10/06 10:39:34;;;;;;;;;;;;;;;22.78;60.42;100927.50;4388669;32;20590;-94
2022/10/06 10:42:01;;;;;;;;;;;;;;;22.79;60.42;100921.25;4373952;32;19998;-95
2022/10/06 10:44:28;;;;;;;;;;;;;;;22.82;60.42;100920.22;4364494;32;20705;-95
2022/10/06 10:46:54;;;;;;;;;;;;;;;23.03;60.43;100928.63;4381145;32;19967;-94
2022/10/06 10:49:26;;;;;;;;;;;;;;;23.13;60.44;100935.88;4370757;32;20548;-94
2022/10/06 10:51:52;;;;;;;;;;;;;;;23.30;60.45;100928.59;4361974;32;19977;-94
2022/10/06 10:54:33;;;;;;;;;;;;;;;23.39;60.45;100930.62;4371826;32;19947;-94
2022/10/06 10:56:58;;;;;;;;;;;;;;;23.37;60.46;100936.06;4379501;32;19982;-96
2022/10/06 10:59:25;;;;;;;;;;;;;;;23.62;60.46;100929.13;4379906;32;20031;-96
2022/10/06 11:02:09;;;;;;;;;;;;;;;23.57;60.47;100930.28;4381848;32;20005;-95
2022/10/06 11:04:36;;;;;;;;;;;;;;;23.51;60.46;100928.03;4364192;32;20045;-95
2022/10/06 11:07:01;;;;;;;;;;;;;;;23.38;60.46;100924.47;4388668;32;19998;-95
2022/10/06 11:09:39;;;;;;;;;;;;;;;23.04;60.44;100930.31;4390151;32;20010;-95
2022/10/06 11:12:17;;;;;;;;;;;;;;;23.13;60.44;100935.88;4366878;32;20002;-95
2022/10/06 11:15:02;;;;;;;;;;;;;;;23.20;60.45;100925.72;4369154;32;20001;-94
2022/10/06 11:17:27;;;;;;;;;;;;;;;23.42;60.45;100927.75;4376752;32;20321;-96
2022/10/06 11:20:04;;;;;;;;;;;;;;;23.26;60.44;100930.62;4369911;32;19999;-95
2022/10/06 11:22:53;;;;;;;;;;;;;;;23.26;60.45;100935.94;4377887;32;20015;-96
2022/10/06 11:25:37;;;;;;;;;;;;;;;23.48;60.46;100919.41;4366340;32;19994;-94
2022/10/06 11:28:05;;;;;;;;;;;;;;;23.86;60.48;100919.47;4379240;32;19986;-95
2022/10/06 11:30:32;;;;;;;;;;;;;;;23.93;60.48;100912.81;4366512;32;19999;-95
2022/10/06 11:33:00;;;;;;;;;;;;;;;24.03;60.48;100913.84;4378977;32;19995;-95
2022/10/06 11:35:26;;;;;;;;;;;;;;;24.19;60.50;100914.50;4378909;32;19983;-95
2022/10/06 11:37:51;;;;;;;;;;;;;;;24.24;60.50;100900.00;4388267;32;20039;-95
2022/10/06 11:40:35;;;;;;;;;;;;;;;24.37;60.51;100899.06;4378411;32;20029;-96
2022/10/06 11:43:06;;;;;;;;;;;;;;;24.49;60.51;100897.31;4366314;32;19995;-96
2022/10/06 11:45:50;;;;;;;;;;;;;;;24.57;60.51;100896.75;4372052;32;19955;-96
2022/10/06 11:48:26;;;;;;;;;;;;;;;24.36;60.50;100896.50;4378865;32;19983;-96
2022/10/06 11:50:54;;;;;;;;;;;;;;;24.66;60.52;100888.97;4377894;32;19975;-95
2022/10/06 11:53:33;;;;;;;;;;;;;;;24.69;60.53;100894.06;4368313;32;20132;-93
2022/10/06 11:56:16;;;;;;;;;;;;;;;24.82;60.53;100894.00;4386036;32;20024;-95
2022/10/06 11:58:54;;;;;;;;;;;;;;;25.11;60.55;100899.06;4391218;32;20004;-96
2022/10/06 12:01:35;;;;;;;;;;;;;;;25.24;60.56;100889.16;4383965;32;19999;-95
2022/10/06 12:04:06;;;;;;;;;;;;;;;25.27;60.55;100884.47;4377258;32;19967;-95
2022/10/06 12:06:50;;;;;;;;;;;;;;;25.24;60.56;100889.16;4373242;32;19998;-95
2022/10/06 12:09:30;;;;;;;;;;;;;;;25.16;60.55;100887.09;4385174;32;19983;-93
2022/10/06 12:11:56;;;;;;;;;;;;;;;25.15;60.55;100890.72;4372710;32;20010;-96
2022/10/06 12:14:37;;;;;;;;;;;;;;;24.93;60.54;100890.59;4361562;32;20003;-95
2022/10/06 12:17:23;;;;;;;;;;;;;;;24.97;60.54;100884.06;4379424;32;19998;-94
2022/10/06 12:19:51;;;;;;;;;;;;;;;25.08;60.55;100887.69;4358458;32;20017;-95
2022/10/06 12:22:21;;;;;;;;;;;;;;;25.12;60.55;100885.63;4390529;32;19978;-95
2022/10/06 12:25:05;;;;;;;;;;;;;;;25.29;60.55;100885.19;4372114;32;19999;-96
2022/10/06 12:27:51;;;;;;;;;;;;;;;25.34;60.56;100874.22;4378569;32;20049;-95
2022/10/06 12:30:18;;;;;;;;;;;;;;;25.51;60.57;100879.09;4370392;32;20001;-95
2022/10/06 12:32:45;;;;;;;;;;;;;;;25.57;60.57;100869.78;4376519;32;20633;-96
2022/10/06 12:35:13;;;;;;;;;;;;;;;25.65;60.57;100867.37;4373740;32;19952;-95
2022/10/06 12:37:42;;;;;;;;;;;;;;;25.61;60.58;100866.75;4373506;32;19975;-94
2022/10/06 12:40:27;;;;;;;;;;;;;;;25.75;60.58;100868.38;4367892;32;20411;-95
2022/10/06 12:42:53;;;;;;;;;;;;;;;25.47;60.57;100868.78;4377432;32;20009;-95
2022/10/06 12:45:18;;;;;;;;;;;;;;;25.61;60.58;100865.91;4366726;32;19977;-95
2022/10/06 12:47:44;;;;;;;;;;;;;;;25.75;60.58;100856.84;4365457;32;20910;-96
2022/10/06 12:50:16;;;;;;;;;;;;;;;25.63;60.58;100855.97;4378035;32;19979;-95
2022/10/06 12:52:44;;;;;;;;;;;;;;;25.79;60.59;100853.84;4378212;32;19982;-95
2022/10/06 12:55:16;;;;;;;;;;;;;;;25.88;60.59;100852.28;4379892;32;19963;-95
2022/10/06 12:57:48;;;;;;;;;;;;;;;25.86;60.59;100857.72;4379747;32;19981;-95
2022/10/06 13:00:23;;;;;;;;;;;;;;;25.85;60.58;100849.84;4368543;32;19955;-94